createdAt,value
2019-01-28T00:04:02.413Z,0.00
2019-01-28T00:09:09.623Z,0.00
2019-01-28T00:14:15.621Z,0.00
2019-01-28T00:19:20.336Z,0.60
2019-01-28T00:24:24.912Z,0.00
2019-01-28T00:29:29.497Z,0.75
2019-01-28T00:34:34.003Z,0.25
2019-01-28T00:39:38.689Z,0.75
2019-01-28T00:44:43.231Z,0.00
2019-01-28T00:49:47.815Z,0.00
2019-01-28T01:00:51.936Z,0.00
2019-01-28T01:05:56.859Z,0.00
2019-01-28T01:11:01.977Z,0.40
2019-01-28T01:16:07.085Z,1.00
2019-01-28T01:21:23.577Z,0.60
2019-01-28T01:26:28.133Z,0.00
2019-01-28T01:31:32.774Z,0.00
2019-01-28T01:36:37.718Z,0.00
2019-01-28T01:41:43.125Z,0.25
2019-01-28T01:46:48.406Z,0.40
2019-01-28T01:51:56.362Z,0.00
2019-01-28T01:57:01.202Z,0.00
2019-01-28T02:07:55.614Z,0.00
2019-01-28T02:13:04.561Z,0.00
2019-01-28T02:18:12.528Z,1.00
2019-01-28T02:23:17.251Z,0.00
2019-01-28T02:28:21.827Z,0.00
2019-01-28T02:33:27.347Z,0.00
2019-01-28T02:38:32.213Z,0.00
2019-01-28T02:43:41.295Z,0.00
2019-01-28T02:48:47.516Z,0.00
2019-01-28T02:53:52.264Z,0.00
2019-01-28T02:58:57.775Z,0.00
2019-01-28T03:10:29.384Z,0.00
2019-01-28T03:21:11.934Z,0.00
2019-01-28T03:26:17.010Z,0.00
2019-01-28T03:31:22.417Z,0.00
2019-01-28T03:36:27.443Z,0.00
2019-01-28T03:41:32.787Z,0.00
2019-01-28T03:46:39.266Z,0.00
2019-01-28T03:51:47.580Z,0.00
2019-01-28T03:56:52.979Z,0.00
2019-01-28T04:01:57.675Z,0.00
2019-01-28T04:07:08.028Z,0.00
2019-01-28T04:12:13.100Z,0.00
2019-01-28T04:17:17.660Z,0.40
2019-01-28T04:22:22.248Z,0.00
2019-01-28T04:27:26.758Z,0.00
2019-01-28T04:32:31.315Z,0.00
2019-01-28T04:37:35.850Z,0.00
2019-01-28T04:42:40.434Z,0.00
2019-01-28T04:47:45.796Z,0.00
2019-01-28T04:52:50.950Z,0.00
2019-01-28T04:57:55.541Z,0.00
2019-01-28T05:02:59.967Z,0.00
2019-01-28T05:08:04.116Z,0.25
2019-01-28T05:13:08.404Z,0.00
2019-01-28T05:18:12.652Z,0.00
2019-01-28T05:23:16.808Z,0.00
2019-01-28T05:28:20.882Z,0.00
2019-01-28T05:33:25.055Z,0.00
2019-01-28T05:38:29.420Z,0.00
2019-01-28T05:43:33.496Z,0.00
2019-01-28T05:48:37.733Z,0.00
2019-01-28T05:53:41.825Z,0.00
2019-01-28T05:58:45.903Z,0.00
2019-01-28T06:03:50.162Z,0.00
2019-01-28T06:08:54.449Z,0.00
2019-01-28T06:13:58.536Z,0.00
2019-01-28T06:19:02.664Z,0.00
2019-01-28T06:24:06.951Z,0.00
2019-01-28T06:29:11.160Z,0.00
2019-01-28T06:34:15.350Z,0.00
2019-01-28T06:39:19.594Z,0.00
2019-01-28T06:44:23.895Z,0.00
2019-01-28T06:49:27.968Z,0.00
2019-01-28T06:54:32.051Z,1.00
2019-01-28T06:59:36.093Z,0.00
2019-01-28T07:04:40.146Z,0.00
2019-01-28T07:09:44.269Z,0.00
2019-01-28T07:14:48.381Z,0.00
2019-01-28T07:19:52.524Z,0.20
2019-01-28T07:24:56.583Z,0.00
2019-01-28T07:30:00.636Z,0.00
2019-01-28T07:35:05.522Z,0.00
2019-01-28T07:40:10.354Z,0.00
2019-01-28T07:45:17.734Z,5.00
2019-01-28T07:50:22.164Z,9.00
2019-01-28T07:55:26.321Z,6.00
2019-01-28T08:00:30.813Z,9.00
2019-01-28T08:05:34.992Z,4.80
2019-01-28T08:10:39.093Z,7.40
2019-01-28T08:15:43.105Z,7.25
2019-01-28T08:20:47.185Z,4.80
2019-01-28T08:25:51.202Z,3.40
2019-01-28T08:30:55.361Z,3.40
2019-01-28T08:35:59.392Z,4.50
2019-01-28T08:41:03.513Z,5.25
2019-01-28T08:46:07.629Z,3.00
2019-01-28T08:51:11.628Z,3.00
2019-01-28T08:56:16.931Z,2.75
2019-01-28T09:01:21.173Z,5.20
2019-01-28T09:06:25.213Z,6.20
2019-01-28T09:11:29.392Z,2.50
2019-01-28T09:16:33.578Z,2.50
2019-01-28T09:21:37.747Z,3.20
2019-01-28T09:26:41.929Z,2.75
2019-01-28T09:31:46.038Z,2.00
2019-01-28T09:36:50.153Z,3.00
2019-01-28T09:41:54.258Z,2.00
2019-01-28T09:46:58.439Z,1.20
2019-01-28T09:52:02.594Z,2.00
2019-01-28T09:57:06.697Z,1.00
2019-01-28T10:02:10.826Z,2.00
2019-01-28T10:07:14.851Z,2.00
2019-01-28T10:12:19.012Z,1.00
2019-01-28T10:17:23.192Z,3.20
2019-01-28T10:22:27.234Z,2.60
2019-01-28T10:27:31.341Z,2.00
2019-01-28T10:32:36.263Z,1.75
2019-01-28T10:37:40.686Z,1.00
2019-01-28T10:42:44.955Z,2.25
2019-01-28T10:47:48.970Z,1.80
2019-01-28T10:52:53.181Z,3.00
2019-01-28T10:57:57.444Z,5.00
2019-01-28T11:03:01.750Z,4.00
2019-01-28T11:08:06.951Z,4.00
2019-01-28T11:13:11.213Z,3.75
2019-01-28T11:18:27.168Z,4.80
2019-01-28T11:23:32.292Z,4.00
2019-01-28T11:28:36.726Z,4.00
2019-01-28T11:33:40.884Z,3.50
2019-01-28T11:38:45.215Z,5.00
2019-01-28T11:43:49.350Z,4.40
2019-01-28T11:48:53.684Z,2.00
2019-01-28T11:53:57.732Z,3.00
2019-01-28T11:59:01.813Z,3.00
2019-01-28T12:04:06.030Z,4.25
2019-01-28T12:09:10.995Z,1.20
2019-01-28T12:14:15.105Z,2.50
2019-01-28T12:19:19.247Z,3.00
2019-01-28T12:24:23.349Z,3.00
2019-01-28T12:29:27.442Z,4.20
2019-01-28T12:39:52.699Z,4.00
2019-01-28T12:44:57.048Z,2.80
2019-01-28T12:50:01.180Z,2.75
2019-01-28T12:55:07.178Z,3.00
2019-01-28T13:00:14.718Z,1.25
2019-01-28T13:05:20.175Z,3.60
2019-01-28T13:10:24.704Z,2.20
2019-01-28T13:15:29.153Z,1.00
2019-01-28T13:20:33.327Z,1.00
2019-01-28T13:25:37.619Z,1.00
2019-01-28T13:30:41.706Z,1.00
2019-01-28T13:35:45.874Z,0.25
2019-01-28T13:40:49.973Z,0.80
2019-01-28T13:45:54.110Z,0.00
2019-01-28T13:50:58.182Z,0.00
2019-01-28T13:56:02.285Z,0.00
2019-01-28T14:01:06.542Z,0.00
2019-01-28T14:06:10.618Z,0.50
2019-01-28T14:11:14.677Z,0.00
2019-01-28T14:16:18.677Z,0.00
2019-01-28T14:21:22.761Z,0.00
2019-01-28T14:26:26.844Z,0.00
2019-01-28T14:31:30.844Z,0.00
2019-01-28T14:36:34.949Z,0.00
2019-01-28T14:41:39.040Z,0.00
2019-01-28T14:46:43.054Z,1.00
2019-01-28T14:51:47.168Z,0.00
2019-01-28T14:56:52.160Z,0.00
2019-01-28T15:01:56.488Z,0.00
2019-01-28T15:07:00.497Z,0.00
2019-01-28T15:12:04.839Z,0.00
2019-01-28T15:17:08.863Z,1.00
2019-01-28T15:22:13.901Z,0.00
2019-01-28T15:27:17.948Z,0.00
2019-01-28T15:32:21.968Z,0.00
2019-01-28T15:37:26.163Z,0.00
2019-01-28T15:42:31.039Z,0.00
2019-01-28T15:47:35.134Z,0.00
2019-01-28T15:52:39.303Z,0.00
2019-01-28T15:57:43.963Z,0.00
2019-01-28T16:02:48.412Z,0.20
2019-01-28T16:07:52.599Z,2.00
2019-01-28T16:12:56.877Z,2.20
2019-01-28T16:18:00.974Z,1.00
2019-01-28T16:23:05.878Z,1.40
2019-01-28T16:28:10.139Z,2.20
2019-01-28T16:33:14.306Z,0.50
2019-01-28T16:38:18.334Z,2.20
2019-01-28T16:43:22.546Z,0.00
2019-01-28T16:48:26.790Z,0.00
2019-01-28T16:53:30.963Z,2.00
2019-01-28T16:58:36.229Z,0.50
2019-01-28T17:03:40.451Z,0.00
2019-01-28T17:08:45.003Z,0.00
2019-01-28T17:13:49.119Z,0.40
2019-01-28T17:18:53.823Z,2.00
2019-01-28T17:23:58.023Z,3.25
2019-01-28T17:29:02.100Z,1.00
2019-01-28T17:34:06.256Z,1.00
2019-01-28T17:39:10.428Z,2.00
2019-01-28T17:44:14.467Z,1.20
2019-01-28T17:49:18.560Z,1.00
2019-01-28T17:54:22.585Z,2.00
2019-01-28T17:59:26.669Z,0.40
2019-01-28T18:04:30.697Z,1.00
2019-01-28T18:09:34.731Z,1.00
2019-01-28T18:14:38.849Z,2.25
2019-01-28T18:19:42.992Z,2.40
2019-01-28T18:24:47.279Z,0.75
2019-01-28T18:29:51.297Z,0.00
2019-01-28T18:34:55.441Z,0.00
2019-01-28T18:39:59.504Z,0.00
2019-01-28T18:45:04.164Z,0.00
2019-01-28T18:50:11.129Z,0.00
2019-01-28T18:55:16.706Z,0.00
2019-01-28T19:00:23.302Z,1.00
2019-01-28T19:05:38.237Z,2.00
2019-01-28T19:10:54.143Z,0.00
2019-01-28T19:16:16.201Z,0.00
2019-01-28T19:21:40.759Z,0.60
2019-01-28T19:26:45.184Z,1.00
2019-01-28T19:31:49.218Z,0.00
2019-01-28T19:36:53.324Z,0.00
2019-01-28T19:41:57.347Z,1.20
2019-01-28T19:47:01.458Z,0.00
2019-01-28T19:52:05.707Z,1.00
2019-01-28T19:57:09.754Z,0.00
2019-01-28T20:02:13.795Z,0.00
2019-01-28T20:07:17.798Z,0.75
2019-01-28T20:12:21.844Z,0.00
2019-01-28T20:17:25.922Z,0.00
2019-01-28T20:22:29.949Z,0.00
2019-01-28T20:27:33.971Z,0.00
2019-01-28T20:32:38.028Z,0.00
2019-01-28T20:37:42.173Z,1.00
2019-01-28T20:42:46.268Z,0.00
2019-01-28T20:47:50.388Z,0.00
2019-01-28T20:52:54.644Z,0.00
2019-01-28T20:57:58.836Z,1.00
2019-01-28T21:03:02.947Z,0.00
2019-01-28T21:08:07.136Z,1.00
2019-01-28T21:13:11.390Z,0.00
2019-01-28T21:18:15.886Z,0.75
2019-01-28T21:23:20.036Z,0.00
2019-01-28T21:28:24.359Z,0.00
2019-01-28T21:33:28.705Z,0.00
2019-01-28T21:38:37.778Z,0.00
2019-01-28T21:43:41.854Z,0.00
2019-01-28T21:48:46.087Z,1.00
2019-01-28T21:53:50.447Z,0.00
2019-01-28T21:58:54.724Z,0.40
2019-01-28T22:03:58.894Z,1.00
2019-01-28T22:09:03.498Z,0.00
2019-01-28T22:14:07.890Z,0.00
2019-01-28T22:19:12.167Z,0.25
2019-01-28T22:24:16.343Z,0.40
2019-01-28T22:29:20.424Z,1.00
2019-01-28T22:34:24.767Z,0.00
2019-01-28T22:39:29.090Z,0.00
2019-01-28T22:44:33.467Z,0.00
2019-01-28T22:49:37.752Z,0.00
2019-01-28T22:54:41.858Z,0.00
2019-01-28T22:59:46.058Z,0.75
2019-01-28T23:04:50.199Z,0.00
2019-01-28T23:09:54.350Z,0.00
2019-01-28T23:14:58.408Z,0.00
2019-01-28T23:20:02.701Z,0.20
2019-01-28T23:25:07.137Z,0.00
2019-01-28T23:30:13.007Z,0.00
2019-01-28T23:35:17.117Z,0.00
2019-01-28T23:40:21.253Z,1.00
2019-01-28T23:45:25.538Z,0.00
2019-01-28T23:50:29.635Z,0.00
2019-01-28T23:55:33.814Z,0.00
